sensor_id;sensor_type;location;lat;lon;timestamp;temperature;humidity
45549;DHT22;31270;48.328;10.096;2022-10-16T00:02:24;13.80;99.90
45549;DHT22;31270;48.328;10.096;2022-10-16T00:04:50;13.80;99.90
45549;DHT22;31270;48.328;10.096;2022-10-16T00:07:15;13.80;99.90
45549;DHT22;31270;48.328;10.096;2022-10-16T00:09:41;13.70;99.90
45549;DHT22;31270;48.328;10.096;2022-10-16T00:12:06;13.70;99.90
45549;DHT22;31270;48.328;10.096;2022-10-16T00:14:32;13.70;99.90
45549;DHT22;31270;48.328;10.096;2022-10-16T00:16:58;13.70;99.90
45549;DHT22;31270;48.328;10.096;2022-10-16T00:19:24;13.80;99.90
45549;DHT22;31270;48.328;10.096;2022-10-16T00:21:49;13.80;99.90
45549;DHT22;31270;48.328;10.096;2022-10-16T00:24:15;13.90;99.90
45549;DHT22;31270;48.328;10.096;2022-10-16T00:26:41;13.70;99.90
45549;DHT22;31270;48.328;10.096;2022-10-16T00:29:07;13.80;99.90
45549;DHT22;31270;48.328;10.096;2022-10-16T00:31:33;13.80;99.90
45549;DHT22;31270;48.328;10.096;2022-10-16T00:33:59;13.90;99.90
45549;DHT22;31270;48.328;10.096;2022-10-16T00:36:26;13.90;99.90
45549;DHT22;31270;48.328;10.096;2022-10-16T00:38:53;13.70;99.90
45549;DHT22;31270;48.328;10.096;2022-10-16T00:41:21;13.50;99.90
45549;DHT22;31270;48.328;10.096;2022-10-16T00:43:56;13.60;99.90
45549;DHT22;31270;48.328;10.096;2022-10-16T00:46:26;13.60;99.90
45549;DHT22;31270;48.328;10.096;2022-10-16T00:51:37;13.60;99.90
45549;DHT22;31270;48.328;10.096;2022-10-16T00:54:06;13.50;99.90
45549;DHT22;31270;48.328;10.096;2022-10-16T00:56:32;13.50;99.90
45549;DHT22;31270;48.328;10.096;2022-10-16T00:59:01;13.50;99.90
45549;DHT22;31270;48.328;10.096;2022-10-16T01:01:27;13.50;99.90
45549;DHT22;31270;48.328;10.096;2022-10-16T01:03:53;13.50;99.90
45549;DHT22;31270;48.328;10.096;2022-10-16T01:06:23;13.40;99.90
45549;DHT22;31270;48.328;10.096;2022-10-16T01:09:08;13.40;99.90
45549;DHT22;31270;48.328;10.096;2022-10-16T01:14:25;13.40;99.90
45549;DHT22;31270;48.328;10.096;2022-10-16T01:16:53;13.40;99.90
45549;DHT22;31270;48.328;10.096;2022-10-16T01:22:11;13.40;99.90
45549;DHT22;31270;48.328;10.096;2022-10-16T01:24:44;13.40;99.90
45549;DHT22;31270;48.328;10.096;2022-10-16T01:27:21;13.40;99.90
45549;DHT22;31270;48.328;10.096;2022-10-16T01:35:03;13.40;99.90
45549;DHT22;31270;48.328;10.096;2022-10-16T01:40:13;13.30;99.90
45549;DHT22;31270;48.328;10.096;2022-10-16T01:42:42;13.30;99.90
45549;DHT22;31270;48.328;10.096;2022-10-16T01:45:13;13.30;99.90
45549;DHT22;31270;48.328;10.096;2022-10-16T01:47:40;13.40;99.90
45549;DHT22;31270;48.328;10.096;2022-10-16T01:50:08;13.30;99.90
45549;DHT22;31270;48.328;10.096;2022-10-16T01:52:37;13.40;99.90
45549;DHT22;31270;48.328;10.096;2022-10-16T01:55:05;13.40;99.90
45549;DHT22;31270;48.328;10.096;2022-10-16T01:57:34;13.40;99.90
45549;DHT22;31270;48.328;10.096;2022-10-16T02:00:07;13.40;99.90
45549;DHT22;31270;48.328;10.096;2022-10-16T02:02:34;13.40;99.90
45549;DHT22;31270;48.328;10.096;2022-10-16T02:05:33;13.60;99.90
45549;DHT22;31270;48.328;10.096;2022-10-16T02:07:59;13.40;99.90
45549;DHT22;31270;48.328;10.096;2022-10-16T02:10:25;13.40;99.90
45549;DHT22;31270;48.328;10.096;2022-10-16T02:13:33;13.50;99.90
45549;DHT22;31270;48.328;10.096;2022-10-16T02:15:59;13.40;99.90
45549;DHT22;31270;48.328;10.096;2022-10-16T02:18:26;13.40;99.90
45549;DHT22;31270;48.328;10.096;2022-10-16T02:24:01;13.40;99.90
45549;DHT22;31270;48.328;10.096;2022-10-16T02:26:59;13.50;99.90
45549;DHT22;31270;48.328;10.096;2022-10-16T02:29:27;13.40;99.90
45549;DHT22;31270;48.328;10.096;2022-10-16T02:32:04;13.40;99.90
45549;DHT22;31270;48.328;10.096;2022-10-16T02:34:32;13.40;99.90
45549;DHT22;31270;48.328;10.096;2022-10-16T02:37:01;13.40;99.90
45549;DHT22;31270;48.328;10.096;2022-10-16T02:39:29;13.40;99.90
45549;DHT22;31270;48.328;10.096;2022-10-16T02:41:55;13.50;99.90
45549;DHT22;31270;48.328;10.096;2022-10-16T02:44:21;13.40;99.90
45549;DHT22;31270;48.328;10.096;2022-10-16T02:46:47;13.40;99.90
45549;DHT22;31270;48.328;10.096;2022-10-16T02:49:12;13.40;99.90
45549;DHT22;31270;48.328;10.096;2022-10-16T02:51:38;13.50;99.90
45549;DHT22;31270;48.328;10.096;2022-10-16T02:54:03;13.50;99.90
45549;DHT22;31270;48.328;10.096;2022-10-16T02:56:29;13.50;99.90
45549;DHT22;31270;48.328;10.096;2022-10-16T02:58:56;13.50;99.90
45549;DHT22;31270;48.328;10.096;2022-10-16T03:01:22;13.50;99.90
45549;DHT22;31270;48.328;10.096;2022-10-16T03:03:48;13.50;99.90
45549;DHT22;31270;48.328;10.096;2022-10-16T03:06:14;13.60;99.90
45549;DHT22;31270;48.328;10.096;2022-10-16T03:08:39;13.60;99.90
45549;DHT22;31270;48.328;10.096;2022-10-16T03:11:05;13.50;99.90
45549;DHT22;31270;48.328;10.096;2022-10-16T03:13:30;13.60;99.90
45549;DHT22;31270;48.328;10.096;2022-10-16T03:15:56;13.60;99.90
45549;DHT22;31270;48.328;10.096;2022-10-16T03:18:22;13.60;99.90
45549;DHT22;31270;48.328;10.096;2022-10-16T03:20:47;13.70;99.90
45549;DHT22;31270;48.328;10.096;2022-10-16T03:23:13;13.60;99.90
45549;DHT22;31270;48.328;10.096;2022-10-16T03:25:39;13.60;99.90
45549;DHT22;31270;48.328;10.096;2022-10-16T03:28:04;13.70;99.90
45549;DHT22;31270;48.328;10.096;2022-10-16T03:30:30;13.60;99.90
45549;DHT22;31270;48.328;10.096;2022-10-16T03:32:56;13.50;99.90
45549;DHT22;31270;48.328;10.096;2022-10-16T03:35:22;13.50;99.90
45549;DHT22;31270;48.328;10.096;2022-10-16T03:37:48;13.60;99.90
45549;DHT22;31270;48.328;10.096;2022-10-16T03:40:14;13.60;99.90
45549;DHT22;31270;48.328;10.096;2022-10-16T03:42:42;13.60;99.90
45549;DHT22;31270;48.328;10.096;2022-10-16T03:45:08;13.50;99.90
45549;DHT22;31270;48.328;10.096;2022-10-16T03:47:34;13.50;99.90
45549;DHT22;31270;48.328;10.096;2022-10-16T03:50:00;13.50;99.90
45549;DHT22;31270;48.328;10.096;2022-10-16T03:52:26;13.40;99.90
45549;DHT22;31270;48.328;10.096;2022-10-16T03:54:51;13.60;99.90
45549;DHT22;31270;48.328;10.096;2022-10-16T03:57:17;13.50;99.90
45549;DHT22;31270;48.328;10.096;2022-10-16T03:59:43;13.40;99.90
45549;DHT22;31270;48.328;10.096;2022-10-16T04:02:09;13.40;99.90
45549;DHT22;31270;48.328;10.096;2022-10-16T04:04:35;13.40;99.90
45549;DHT22;31270;48.328;10.096;2022-10-16T04:07:01;13.30;99.90
45549;DHT22;31270;48.328;10.096;2022-10-16T04:09:26;13.50;99.90
45549;DHT22;31270;48.328;10.096;2022-10-16T04:11:52;13.40;99.90
45549;DHT22;31270;48.328;10.096;2022-10-16T04:14:18;13.40;99.90
45549;DHT22;31270;48.328;10.096;2022-10-16T04:16:44;13.30;99.90
45549;DHT22;31270;48.328;10.096;2022-10-16T04:19:10;13.30;99.90
45549;DHT22;31270;48.328;10.096;2022-10-16T04:21:36;13.40;99.90
45549;DHT22;31270;48.328;10.096;2022-10-16T04:24:02;13.30;99.90
45549;DHT22;31270;48.328;10.096;2022-10-16T04:26:27;13.20;99.90
45549;DHT22;31270;48.328;10.096;2022-10-16T04:28:53;13.20;99.90
45549;DHT22;31270;48.328;10.096;2022-10-16T04:31:19;13.30;99.90
45549;DHT22;31270;48.328;10.096;2022-10-16T04:33:45;13.40;99.90
45549;DHT22;31270;48.328;10.096;2022-10-16T04:36:11;13.20;99.90
45549;DHT22;31270;48.328;10.096;2022-10-16T04:38:38;13.20;99.90
45549;DHT22;31270;48.328;10.096;2022-10-16T04:41:05;13.20;99.90
45549;DHT22;31270;48.328;10.096;2022-10-16T04:43:31;13.20;99.90
45549;DHT22;31270;48.328;10.096;2022-10-16T04:45:57;13.10;99.90
45549;DHT22;31270;48.328;10.096;2022-10-16T04:48:22;13.10;99.90
45549;DHT22;31270;48.328;10.096;2022-10-16T04:50:48;13.00;99.90
45549;DHT22;31270;48.328;10.096;2022-10-16T04:53:14;13.00;99.90
45549;DHT22;31270;48.328;10.096;2022-10-16T04:55:41;13.10;99.90
45549;DHT22;31270;48.328;10.096;2022-10-16T04:58:07;13.00;99.90
45549;DHT22;31270;48.328;10.096;2022-10-16T05:00:33;13.00;99.90
45549;DHT22;31270;48.328;10.096;2022-10-16T05:02:59;13.00;99.90
45549;DHT22;31270;48.328;10.096;2022-10-16T05:05:27;13.00;99.90
45549;DHT22;31270;48.328;10.096;2022-10-16T05:07:52;13.00;99.90
45549;DHT22;31270;48.328;10.096;2022-10-16T05:10:18;12.90;99.90
45549;DHT22;31270;48.328;10.096;2022-10-16T05:12:46;12.90;99.90
45549;DHT22;31270;48.328;10.096;2022-10-16T05:15:12;12.90;99.90
45549;DHT22;31270;48.328;10.096;2022-10-16T05:17:38;12.90;99.90
45549;DHT22;31270;48.328;10.096;2022-10-16T05:20:04;12.90;99.90
45549;DHT22;31270;48.328;10.096;2022-10-16T05:22:29;12.90;99.90
45549;DHT22;31270;48.328;10.096;2022-10-16T05:24:55;12.90;99.90
45549;DHT22;31270;48.328;10.096;2022-10-16T05:27:20;12.90;99.90
45549;DHT22;31270;48.328;10.096;2022-10-16T05:29:47;12.90;99.90
45549;DHT22;31270;48.328;10.096;2022-10-16T05:32:17;12.80;99.90
45549;DHT22;31270;48.328;10.096;2022-10-16T05:34:43;12.80;99.90
45549;DHT22;31270;48.328;10.096;2022-10-16T05:37:08;12.80;99.90
45549;DHT22;31270;48.328;10.096;2022-10-16T05:39:34;12.70;99.90
45549;DHT22;31270;48.328;10.096;2022-10-16T05:42:00;12.70;99.90
45549;DHT22;31270;48.328;10.096;2022-10-16T05:44:25;12.60;99.90
45549;DHT22;31270;48.328;10.096;2022-10-16T05:46:51;12.70;99.90
45549;DHT22;31270;48.328;10.096;2022-10-16T05:49:17;12.70;99.90
45549;DHT22;31270;48.328;10.096;2022-10-16T05:51:42;12.70;99.90
45549;DHT22;31270;48.328;10.096;2022-10-16T05:54:09;12.70;99.90
45549;DHT22;31270;48.328;10.096;2022-10-16T05:56:34;12.70;99.90
45549;DHT22;31270;48.328;10.096;2022-10-16T05:59:00;12.60;99.90
45549;DHT22;31270;48.328;10.096;2022-10-16T06:01:25;12.80;99.90
45549;DHT22;31270;48.328;10.096;2022-10-16T06:03:52;12.80;99.90
45549;DHT22;31270;48.328;10.096;2022-10-16T06:06:20;12.90;99.90
45549;DHT22;31270;48.328;10.096;2022-10-16T06:08:47;12.90;99.90
45549;DHT22;31270;48.328;10.096;2022-10-16T06:11:16;12.90;99.90
45549;DHT22;31270;48.328;10.096;2022-10-16T06:13:42;12.90;99.90
45549;DHT22;31270;48.328;10.096;2022-10-16T06:16:09;13.00;99.90
45549;DHT22;31270;48.328;10.096;2022-10-16T06:18:36;13.10;99.90
45549;DHT22;31270;48.328;10.096;2022-10-16T06:21:11;13.10;99.90
45549;DHT22;31270;48.328;10.096;2022-10-16T06:23:37;13.10;99.90
45549;DHT22;31270;48.328;10.096;2022-10-16T06:26:11;13.20;99.90
45549;DHT22;31270;48.328;10.096;2022-10-16T06:28:38;13.20;99.90
45549;DHT22;31270;48.328;10.096;2022-10-16T06:31:05;13.20;99.90
45549;DHT22;31270;48.328;10.096;2022-10-16T06:33:31;13.20;99.90
45549;DHT22;31270;48.328;10.096;2022-10-16T06:36:01;13.20;99.90
45549;DHT22;31270;48.328;10.096;2022-10-16T06:38:28;13.20;99.90
45549;DHT22;31270;48.328;10.096;2022-10-16T06:40:54;13.20;99.90
45549;DHT22;31270;48.328;10.096;2022-10-16T06:43:19;13.20;99.90
45549;DHT22;31270;48.328;10.096;2022-10-16T06:45:51;13.20;99.90
45549;DHT22;31270;48.328;10.096;2022-10-16T06:48:17;13.50;99.90
45549;DHT22;31270;48.328;10.096;2022-10-16T06:50:43;13.30;99.90
45549;DHT22;31270;48.328;10.096;2022-10-16T06:53:08;13.40;99.90
45549;DHT22;31270;48.328;10.096;2022-10-16T06:55:34;13.40;99.90
45549;DHT22;31270;48.328;10.096;2022-10-16T06:58:00;13.60;99.90
45549;DHT22;31270;48.328;10.096;2022-10-16T07:00:25;13.50;99.90
45549;DHT22;31270;48.328;10.096;2022-10-16T07:02:51;13.60;99.90
45549;DHT22;31270;48.328;10.096;2022-10-16T07:05:16;13.70;99.90
45549;DHT22;31270;48.328;10.096;2022-10-16T07:07:42;13.90;99.90
45549;DHT22;31270;48.328;10.096;2022-10-16T07:10:08;13.80;99.90
45549;DHT22;31270;48.328;10.096;2022-10-16T07:12:34;13.90;99.90
45549;DHT22;31270;48.328;10.096;2022-10-16T07:14:59;13.90;99.90
45549;DHT22;31270;48.328;10.096;2022-10-16T07:17:25;14.00;99.90
45549;DHT22;31270;48.328;10.096;2022-10-16T07:19:50;14.10;99.90
45549;DHT22;31270;48.328;10.096;2022-10-16T07:22:18;14.10;99.90
45549;DHT22;31270;48.328;10.096;2022-10-16T07:24:44;14.30;99.90
45549;DHT22;31270;48.328;10.096;2022-10-16T07:27:10;14.30;99.90
45549;DHT22;31270;48.328;10.096;2022-10-16T07:29:35;14.50;99.90
45549;DHT22;31270;48.328;10.096;2022-10-16T07:32:02;14.40;99.90
45549;DHT22;31270;48.328;10.096;2022-10-16T07:34:27;14.50;99.90
45549;DHT22;31270;48.328;10.096;2022-10-16T07:36:53;14.50;99.90
45549;DHT22;31270;48.328;10.096;2022-10-16T07:39:19;14.60;99.90
45549;DHT22;31270;48.328;10.096;2022-10-16T07:41:44;14.70;99.90
45549;DHT22;31270;48.328;10.096;2022-10-16T07:44:10;14.80;99.90
45549;DHT22;31270;48.328;10.096;2022-10-16T07:46:36;14.80;99.90
45549;DHT22;31270;48.328;10.096;2022-10-16T07:49:02;14.80;99.90
45549;DHT22;31270;48.328;10.096;2022-10-16T07:51:28;14.90;99.90
45549;DHT22;31270;48.328;10.096;2022-10-16T07:53:54;15.00;99.90
45549;DHT22;31270;48.328;10.096;2022-10-16T07:56:20;15.10;99.90
45549;DHT22;31270;48.328;10.096;2022-10-16T07:58:46;15.20;99.90
45549;DHT22;31270;48.328;10.096;2022-10-16T08:01:14;15.20;99.90
45549;DHT22;31270;48.328;10.096;2022-10-16T08:03:45;15.40;99.90
45549;DHT22;31270;48.328;10.096;2022-10-16T08:06:11;15.50;99.90
45549;DHT22;31270;48.328;10.096;2022-10-16T08:08:37;15.50;99.90
45549;DHT22;31270;48.328;10.096;2022-10-16T08:11:02;15.70;99.90
45549;DHT22;31270;48.328;10.096;2022-10-16T08:13:31;15.70;99.90
45549;DHT22;31270;48.328;10.096;2022-10-16T08:15:57;15.80;99.90
45549;DHT22;31270;48.328;10.096;2022-10-16T08:18:23;16.00;99.90
45549;DHT22;31270;48.328;10.096;2022-10-16T08:20:55;15.90;99.90
45549;DHT22;31270;48.328;10.096;2022-10-16T08:23:21;15.90;99.90
45549;DHT22;31270;48.328;10.096;2022-10-16T08:25:47;16.00;99.90
45549;DHT22;31270;48.328;10.096;2022-10-16T08:28:12;16.00;99.90
45549;DHT22;31270;48.328;10.096;2022-10-16T08:30:38;16.20;99.90
45549;DHT22;31270;48.328;10.096;2022-10-16T08:33:04;16.10;99.90
45549;DHT22;31270;48.328;10.096;2022-10-16T08:35:31;16.20;99.90
45549;DHT22;31270;48.328;10.096;2022-10-16T08:37:56;16.30;99.90
45549;DHT22;31270;48.328;10.096;2022-10-16T08:40:23;16.30;99.90
45549;DHT22;31270;48.328;10.096;2022-10-16T08:43:34;16.40;99.90
45549;DHT22;31270;48.328;10.096;2022-10-16T08:46:22;16.30;99.90
45549;DHT22;31270;48.328;10.096;2022-10-16T08:48:54;16.40;99.90
45549;DHT22;31270;48.328;10.096;2022-10-16T08:51:30;16.50;99.90
45549;DHT22;31270;48.328;10.096;2022-10-16T08:53:59;16.50;99.90
45549;DHT22;31270;48.328;10.096;2022-10-16T08:56:26;16.70;99.90
45549;DHT22;31270;48.328;10.096;2022-10-16T08:58:53;16.60;99.90
45549;DHT22;31270;48.328;10.096;2022-10-16T09:01:21;16.60;99.90
45549;DHT22;31270;48.328;10.096;2022-10-16T09:06:56;16.60;99.90
45549;DHT22;31270;48.328;10.096;2022-10-16T09:12:24;16.70;99.90
45549;DHT22;31270;48.328;10.096;2022-10-16T09:15:43;16.70;99.90
45549;DHT22;31270;48.328;10.096;2022-10-16T09:18:15;16.70;99.90
45549;DHT22;31270;48.328;10.096;2022-10-16T09:23:27;16.80;99.90
45549;DHT22;31270;48.328;10.096;2022-10-16T09:25:55;16.90;99.90
45549;DHT22;31270;48.328;10.096;2022-10-16T09:28:23;16.90;99.90
45549;DHT22;31270;48.328;10.096;2022-10-16T09:30:49;17.10;99.90
45549;DHT22;31270;48.328;10.096;2022-10-16T09:33:17;17.10;99.90
45549;DHT22;31270;48.328;10.096;2022-10-16T09:35:45;17.00;99.90
45549;DHT22;31270;48.328;10.096;2022-10-16T09:38:26;17.10;99.90
45549;DHT22;31270;48.328;10.096;2022-10-16T09:40:54;17.10;99.90
45549;DHT22;31270;48.328;10.096;2022-10-16T09:43:39;17.20;99.90
45549;DHT22;31270;48.328;10.096;2022-10-16T09:46:25;17.20;99.90
45549;DHT22;31270;48.328;10.096;2022-10-16T09:48:55;17.30;99.90
45549;DHT22;31270;48.328;10.096;2022-10-16T09:51:25;17.50;99.90
45549;DHT22;31270;48.328;10.096;2022-10-16T09:53:56;17.60;99.90
45549;DHT22;31270;48.328;10.096;2022-10-16T09:56:27;17.70;99.90
45549;DHT22;31270;48.328;10.096;2022-10-16T09:58:57;17.90;99.90
45549;DHT22;31270;48.328;10.096;2022-10-16T10:01:30;18.10;99.90
45549;DHT22;31270;48.328;10.096;2022-10-16T10:03:58;18.30;99.90
45549;DHT22;31270;48.328;10.096;2022-10-16T10:06:33;18.50;99.90
45549;DHT22;31270;48.328;10.096;2022-10-16T10:09:27;18.90;99.90
45549;DHT22;31270;48.328;10.096;2022-10-16T10:11:56;19.10;99.90
45549;DHT22;31270;48.328;10.096;2022-10-16T10:14:24;19.20;99.90
45549;DHT22;31270;48.328;10.096;2022-10-16T10:16:51;19.40;99.90
45549;DHT22;31270;48.328;10.096;2022-10-16T10:19:24;19.20;99.90
45549;DHT22;31270;48.328;10.096;2022-10-16T10:21:50;19.60;99.90
45549;DHT22;31270;48.328;10.096;2022-10-16T10:24:18;19.60;99.90
45549;DHT22;31270;48.328;10.096;2022-10-16T10:27:09;19.70;99.90
45549;DHT22;31270;48.328;10.096;2022-10-16T10:29:40;19.70;99.90
45549;DHT22;31270;48.328;10.096;2022-10-16T10:40:27;20.10;99.90
45549;DHT22;31270;48.328;10.096;2022-10-16T10:43:04;20.30;99.90
45549;DHT22;31270;48.328;10.096;2022-10-16T10:51:09;20.60;99.90
45549;DHT22;31270;48.328;10.096;2022-10-16T10:53:54;20.80;99.90
45549;DHT22;31270;48.328;10.096;2022-10-16T10:59:36;21.10;99.90
45549;DHT22;31270;48.328;10.096;2022-10-16T11:03:13;21.20;99.90
45549;DHT22;31270;48.328;10.096;2022-10-16T11:07:56;21.10;99.90
45549;DHT22;31270;48.328;10.096;2022-10-16T11:10:45;21.00;99.90
45549;DHT22;31270;48.328;10.096;2022-10-16T11:15:47;21.20;99.90
45549;DHT22;31270;48.328;10.096;2022-10-16T11:18:20;21.30;99.90
45549;DHT22;31270;48.328;10.096;2022-10-16T11:20:53;21.30;99.90
45549;DHT22;31270;48.328;10.096;2022-10-16T11:23:55;21.50;99.90
45549;DHT22;31270;48.328;10.096;2022-10-16T11:26:27;21.60;99.90
45549;DHT22;31270;48.328;10.096;2022-10-16T11:28:55;21.60;99.90
45549;DHT22;31270;48.328;10.096;2022-10-16T11:34:05;21.60;99.90
45549;DHT22;31270;48.328;10.096;2022-10-16T11:36:41;21.70;99.90
45549;DHT22;31270;48.328;10.096;2022-10-16T11:39:21;21.80;99.90
45549;DHT22;31270;48.328;10.096;2022-10-16T11:49:47;22.60;99.90
45549;DHT22;31270;48.328;10.096;2022-10-16T11:52:25;22.80;99.90
45549;DHT22;31270;48.328;10.096;2022-10-16T11:54:57;22.90;99.90
45549;DHT22;31270;48.328;10.096;2022-10-16T11:57:28;22.90;99.90
45549;DHT22;31270;48.328;10.096;2022-10-16T12:05:50;22.80;99.90
45549;DHT22;31270;48.328;10.096;2022-10-16T12:08:17;22.90;99.90
45549;DHT22;31270;48.328;10.096;2022-10-16T12:10:45;23.20;99.90
45549;DHT22;31270;48.328;10.096;2022-10-16T12:13:37;23.40;99.90
45549;DHT22;31270;48.328;10.096;2022-10-16T12:18:44;23.80;99.90
45549;DHT22;31270;48.328;10.096;2022-10-16T12:21:11;23.90;99.90
45549;DHT22;31270;48.328;10.096;2022-10-16T12:23:52;23.90;99.90
45549;DHT22;31270;48.328;10.096;2022-10-16T12:26:32;24.00;99.90
45549;DHT22;31270;48.328;10.096;2022-10-16T12:29:22;24.10;99.90
45549;DHT22;31270;48.328;10.096;2022-10-16T12:31:50;24.20;99.90
45549;DHT22;31270;48.328;10.096;2022-10-16T12:34:25;24.00;99.90
45549;DHT22;31270;48.328;10.096;2022-10-16T12:36:53;23.90;99.90
45549;DHT22;31270;48.328;10.096;2022-10-16T12:39:24;24.00;99.90
45549;DHT22;31270;48.328;10.096;2022-10-16T12:42:05;24.20;99.90
45549;DHT22;31270;48.328;10.096;2022-10-16T12:44:35;24.30;99.90
45549;DHT22;31270;48.328;10.096;2022-10-16T12:47:02;24.40;99.90
45549;DHT22;31270;48.328;10.096;2022-10-16T12:51:54;24.50;99.90
45549;DHT22;31270;48.328;10.096;2022-10-16T12:54:31;24.60;99.90
45549;DHT22;31270;48.328;10.096;2022-10-16T13:00:03;24.80;99.90
45549;DHT22;31270;48.328;10.096;2022-10-16T13:14:20;25.00;99.90
45549;DHT22;31270;48.328;10.096;2022-10-16T13:22:27;25.00;99.90
45549;DHT22;31270;48.328;10.096;2022-10-16T13:28:01;25.10;99.90
45549;DHT22;31270;48.328;10.096;2022-10-16T13:30:30;25.10;99.90
45549;DHT22;31270;48.328;10.096;2022-10-16T13:33:06;25.20;99.90
45549;DHT22;31270;48.328;10.096;2022-10-16T13:35:34;25.20;99.90
45549;DHT22;31270;48.328;10.096;2022-10-16T13:38:06;25.10;99.90
45549;DHT22;31270;48.328;10.096;2022-10-16T13:40:36;25.10;99.90
45549;DHT22;31270;48.328;10.096;2022-10-16T13:43:02;25.10;99.90
45549;DHT22;31270;48.328;10.096;2022-10-16T13:45:27;25.30;99.90
45549;DHT22;31270;48.328;10.096;2022-10-16T13:48:09;25.30;99.90
45549;DHT22;31270;48.328;10.096;2022-10-16T13:50:37;25.30;99.90
45549;DHT22;31270;48.328;10.096;2022-10-16T13:53:15;25.30;99.90
45549;DHT22;31270;48.328;10.096;2022-10-16T13:55:41;25.40;99.90
45549;DHT22;31270;48.328;10.096;2022-10-16T13:58:14;25.30;99.90
45549;DHT22;31270;48.328;10.096;2022-10-16T14:00:52;25.30;99.90
45549;DHT22;31270;48.328;10.096;2022-10-16T14:03:19;25.40;99.90
45549;DHT22;31270;48.328;10.096;2022-10-16T14:05:51;25.40;99.90
45549;DHT22;31270;48.328;10.096;2022-10-16T14:08:17;25.20;99.90
45549;DHT22;31270;48.328;10.096;2022-10-16T14:10:48;25.20;99.90
45549;DHT22;31270;48.328;10.096;2022-10-16T14:13:19;25.10;99.90
45549;DHT22;31270;48.328;10.096;2022-10-16T14:15:49;25.10;99.90
45549;DHT22;31270;48.328;10.096;2022-10-16T14:18:24;25.00;99.90
45549;DHT22;31270;48.328;10.096;2022-10-16T14:20:51;24.90;99.90
45549;DHT22;31270;48.328;10.096;2022-10-16T14:23:29;24.90;99.90
45549;DHT22;31270;48.328;10.096;2022-10-16T14:28:38;24.80;99.90
45549;DHT22;31270;48.328;10.096;2022-10-16T14:31:27;24.70;99.90
45549;DHT22;31270;48.328;10.096;2022-10-16T14:33:53;24.60;99.90
45549;DHT22;31270;48.328;10.096;2022-10-16T14:36:19;24.50;99.90
45549;DHT22;31270;48.328;10.096;2022-10-16T14:41:26;24.20;99.90
45549;DHT22;31270;48.328;10.096;2022-10-16T14:43:54;24.10;99.90
45549;DHT22;31270;48.328;10.096;2022-10-16T14:46:27;23.90;99.90
45549;DHT22;31270;48.328;10.096;2022-10-16T14:51:37;23.50;99.90
45549;DHT22;31270;48.328;10.096;2022-10-16T14:54:04;23.40;99.90
45549;DHT22;31270;48.328;10.096;2022-10-16T14:56:42;23.30;99.90
45549;DHT22;31270;48.328;10.096;2022-10-16T14:59:58;23.20;99.90
45549;DHT22;31270;48.328;10.096;2022-10-16T15:01:59;23.10;99.90
45549;DHT22;31270;48.328;10.096;2022-10-16T15:04:24;23.00;99.90
45549;DHT22;31270;48.328;10.096;2022-10-16T15:06:50;22.90;99.90
45549;DHT22;31270;48.328;10.096;2022-10-16T15:09:15;22.80;99.90
45549;DHT22;31270;48.328;10.096;2022-10-16T15:11:42;22.80;99.90
45549;DHT22;31270;48.328;10.096;2022-10-16T15:14:12;22.70;99.90
45549;DHT22;31270;48.328;10.096;2022-10-16T15:16:38;22.60;99.90
45549;DHT22;31270;48.328;10.096;2022-10-16T15:19:04;22.50;99.90
45549;DHT22;31270;48.328;10.096;2022-10-16T15:21:31;22.50;99.90
45549;DHT22;31270;48.328;10.096;2022-10-16T15:23:58;22.40;99.90
45549;DHT22;31270;48.328;10.096;2022-10-16T15:26:28;22.30;99.90
45549;DHT22;31270;48.328;10.096;2022-10-16T15:28:54;22.30;99.90
45549;DHT22;31270;48.328;10.096;2022-10-16T15:31:20;22.20;99.90
45549;DHT22;31270;48.328;10.096;2022-10-16T15:33:50;22.10;99.90
45549;DHT22;31270;48.328;10.096;2022-10-16T15:36:25;21.90;99.90
45549;DHT22;31270;48.328;10.096;2022-10-16T15:38:51;21.80;99.90
45549;DHT22;31270;48.328;10.096;2022-10-16T15:41:16;21.70;99.90
45549;DHT22;31270;48.328;10.096;2022-10-16T15:43:42;21.70;99.90
45549;DHT22;31270;48.328;10.096;2022-10-16T15:46:11;21.60;99.90
45549;DHT22;31270;48.328;10.096;2022-10-16T15:48:39;21.50;99.90
45549;DHT22;31270;48.328;10.096;2022-10-16T15:51:06;21.40;99.90
45549;DHT22;31270;48.328;10.096;2022-10-16T15:53:33;21.40;99.90
45549;DHT22;31270;48.328;10.096;2022-10-16T15:56:05;21.30;99.90
45549;DHT22;31270;48.328;10.096;2022-10-16T15:58:31;21.20;99.90
45549;DHT22;31270;48.328;10.096;2022-10-16T16:00:57;21.00;99.90
45549;DHT22;31270;48.328;10.096;2022-10-16T16:03:23;21.00;99.90
45549;DHT22;31270;48.328;10.096;2022-10-16T16:05:49;20.90;99.90
45549;DHT22;31270;48.328;10.096;2022-10-16T16:08:14;20.80;99.90
45549;DHT22;31270;48.328;10.096;2022-10-16T16:10:40;20.70;99.90
45549;DHT22;31270;48.328;10.096;2022-10-16T16:13:06;20.60;99.90
45549;DHT22;31270;48.328;10.096;2022-10-16T16:15:32;20.50;99.90
45549;DHT22;31270;48.328;10.096;2022-10-16T16:17:57;20.40;99.90
45549;DHT22;31270;48.328;10.096;2022-10-16T16:20:23;20.20;99.90
45549;DHT22;31270;48.328;10.096;2022-10-16T16:22:48;20.10;99.90
45549;DHT22;31270;48.328;10.096;2022-10-16T16:25:14;20.00;99.90
45549;DHT22;31270;48.328;10.096;2022-10-16T16:27:40;19.90;99.90
45549;DHT22;31270;48.328;10.096;2022-10-16T16:30:06;19.70;99.90
45549;DHT22;31270;48.328;10.096;2022-10-16T16:32:33;19.70;99.90
45549;DHT22;31270;48.328;10.096;2022-10-16T16:35:00;19.50;99.90
45549;DHT22;31270;48.328;10.096;2022-10-16T16:37:25;19.40;99.90
45549;DHT22;31270;48.328;10.096;2022-10-16T16:39:51;19.30;99.90
45549;DHT22;31270;48.328;10.096;2022-10-16T16:42:17;19.20;99.90
45549;DHT22;31270;48.328;10.096;2022-10-16T16:44:42;19.00;99.90
45549;DHT22;31270;48.328;10.096;2022-10-16T16:47:09;19.00;99.90
45549;DHT22;31270;48.328;10.096;2022-10-16T16:49:34;19.00;99.90
45549;DHT22;31270;48.328;10.096;2022-10-16T16:52:00;18.90;99.90
45549;DHT22;31270;48.328;10.096;2022-10-16T16:54:26;18.80;99.90
45549;DHT22;31270;48.328;10.096;2022-10-16T16:56:51;18.80;99.90
45549;DHT22;31270;48.328;10.096;2022-10-16T16:59:19;18.70;99.90
45549;DHT22;31270;48.328;10.096;2022-10-16T17:01:47;18.60;99.90
45549;DHT22;31270;48.328;10.096;2022-10-16T17:04:13;18.50;99.90
45549;DHT22;31270;48.328;10.096;2022-10-16T17:06:41;18.50;99.90
45549;DHT22;31270;48.328;10.096;2022-10-16T17:09:07;18.30;99.90
45549;DHT22;31270;48.328;10.096;2022-10-16T17:11:35;18.30;99.90